sensor_id;sensor_type;location;lat;lon;timestamp;P1;durP1;ratioP1;P2;durP2;ratioP2
72201;SDS011;60105;54.956;73.412;2022-08-04T00:02:31;8.23;;;3.03;;
72201;SDS011;60105;54.956;73.412;2022-08-04T00:08:18;7.82;;;3.10;;
72201;SDS011;60105;54.956;73.412;2022-08-04T00:11:20;6.10;;;3.47;;
72201;SDS011;60105;54.956;73.412;2022-08-04T00:14:01;7.50;;;3.00;;
72201;SDS011;60105;54.956;73.412;2022-08-04T00:16:32;10.63;;;2.63;;
72201;SDS011;60105;54.956;73.412;2022-08-04T00:19:02;6.82;;;3.13;;
72201;SDS011;60105;54.956;73.412;2022-08-04T00:21:33;5.97;;;2.70;;
72201;SDS011;60105;54.956;73.412;2022-08-04T00:24:02;8.23;;;2.60;;
72201;SDS011;60105;54.956;73.412;2022-08-04T00:26:30;5.65;;;2.40;;
72201;SDS011;60105;54.956;73.412;2022-08-04T00:28:58;6.67;;;3.00;;
72201;SDS011;60105;54.956;73.412;2022-08-04T00:31:25;6.07;;;2.55;;
72201;SDS011;60105;54.956;73.412;2022-08-04T00:33:53;7.53;;;2.72;;
72201;SDS011;60105;54.956;73.412;2022-08-04T00:36:19;10.90;;;3.00;;
72201;SDS011;60105;54.956;73.412;2022-08-04T00:38:46;6.90;;;3.00;;
72201;SDS011;60105;54.956;73.412;2022-08-04T00:55:04;19.37;;;8.07;;
72201;SDS011;60105;54.956;73.412;2022-08-04T01:03:49;7.28;;;3.20;;
72201;SDS011;60105;54.956;73.412;2022-08-04T01:15:07;6.13;;;2.28;;
72201;SDS011;60105;54.956;73.412;2022-08-04T01:20:10;9.18;;;3.63;;
72201;SDS011;60105;54.956;73.412;2022-08-04T01:28:29;7.65;;;2.75;;
72201;SDS011;60105;54.956;73.412;2022-08-04T01:31:17;8.38;;;2.53;;
72201;SDS011;60105;54.956;73.412;2022-08-04T01:33:59;7.82;;;2.70;;
72201;SDS011;60105;54.956;73.412;2022-08-04T01:36:33;5.60;;;2.53;;
72201;SDS011;60105;54.956;73.412;2022-08-04T01:39:13;7.82;;;2.80;;
72201;SDS011;60105;54.956;73.412;2022-08-04T01:41:58;6.18;;;2.35;;
72201;SDS011;60105;54.956;73.412;2022-08-04T01:44:27;5.40;;;2.55;;
72201;SDS011;60105;54.956;73.412;2022-08-04T01:46:56;5.88;;;2.80;;
72201;SDS011;60105;54.956;73.412;2022-08-04T01:49:27;6.50;;;2.60;;
72201;SDS011;60105;54.956;73.412;2022-08-04T01:51:55;11.40;;;2.90;;
72201;SDS011;60105;54.956;73.412;2022-08-04T01:54:22;8.85;;;3.00;;
72201;SDS011;60105;54.956;73.412;2022-08-04T01:56:50;7.90;;;2.60;;
72201;SDS011;60105;54.956;73.412;2022-08-04T01:59:18;7.15;;;2.88;;
72201;SDS011;60105;54.956;73.412;2022-08-04T02:01:46;13.47;;;3.43;;
72201;SDS011;60105;54.956;73.412;2022-08-04T02:04:16;8.48;;;3.20;;
72201;SDS011;60105;54.956;73.412;2022-08-04T02:18:39;5.47;;;3.03;;
72201;SDS011;60105;54.956;73.412;2022-08-04T02:21:26;7.05;;;2.42;;
72201;SDS011;60105;54.956;73.412;2022-08-04T02:23:56;8.45;;;2.97;;
72201;SDS011;60105;54.956;73.412;2022-08-04T02:26:27;8.95;;;2.72;;
72201;SDS011;60105;54.956;73.412;2022-08-04T02:29:18;9.97;;;2.70;;
72201;SDS011;60105;54.956;73.412;2022-08-04T02:34:27;7.53;;;3.05;;
72201;SDS011;60105;54.956;73.412;2022-08-04T02:36:54;10.40;;;2.92;;
72201;SDS011;60105;54.956;73.412;2022-08-04T02:39:22;10.73;;;2.72;;
72201;SDS011;60105;54.956;73.412;2022-08-04T02:41:48;8.43;;;3.10;;
72201;SDS011;60105;54.956;73.412;2022-08-04T02:44:21;12.95;;;3.22;;
72201;SDS011;60105;54.956;73.412;2022-08-04T02:46:51;8.35;;;3.20;;
72201;SDS011;60105;54.956;73.412;2022-08-04T02:49:18;8.35;;;2.95;;
72201;SDS011;60105;54.956;73.412;2022-08-04T02:51:47;6.88;;;2.97;;
72201;SDS011;60105;54.956;73.412;2022-08-04T02:54:27;21.50;;;4.03;;
72201;SDS011;60105;54.956;73.412;2022-08-04T02:56:56;6.97;;;2.70;;
72201;SDS011;60105;54.956;73.412;2022-08-04T02:59:26;10.85;;;3.08;;
72201;SDS011;60105;54.956;73.412;2022-08-04T03:01:55;12.40;;;3.40;;
72201;SDS011;60105;54.956;73.412;2022-08-04T03:04:42;9.45;;;3.30;;
72201;SDS011;60105;54.956;73.412;2022-08-04T03:10:43;8.77;;;3.80;;
72201;SDS011;60105;54.956;73.412;2022-08-04T03:22:00;13.13;;;4.03;;
72201;SDS011;60105;54.956;73.412;2022-08-04T03:25:21;10.45;;;3.97;;
72201;SDS011;60105;54.956;73.412;2022-08-04T03:44:47;7.50;;;3.25;;
72201;SDS011;60105;54.956;73.412;2022-08-04T03:53:02;6.53;;;2.78;;
72201;SDS011;60105;54.956;73.412;2022-08-04T03:58:38;8.23;;;3.47;;
72201;SDS011;60105;54.956;73.412;2022-08-04T04:01:52;8.05;;;3.33;;
72201;SDS011;60105;54.956;73.412;2022-08-04T04:07:32;5.85;;;2.63;;
72201;SDS011;60105;54.956;73.412;2022-08-04T04:19:00;9.70;;;3.30;;
72201;SDS011;60105;54.956;73.412;2022-08-04T04:33:36;11.70;;;2.40;;
72201;SDS011;60105;54.956;73.412;2022-08-04T04:36:12;7.50;;;2.25;;
72201;SDS011;60105;54.956;73.412;2022-08-04T04:47:15;6.57;;;2.80;;
72201;SDS011;60105;54.956;73.412;2022-08-04T04:49:48;6.70;;;2.55;;
72201;SDS011;60105;54.956;73.412;2022-08-04T04:52:33;7.55;;;2.42;;
72201;SDS011;60105;54.956;73.412;2022-08-04T04:57:57;5.97;;;2.35;;
72201;SDS011;60105;54.956;73.412;2022-08-04T05:00:43;5.37;;;2.10;;
72201;SDS011;60105;54.956;73.412;2022-08-04T05:11:43;3.72;;;2.00;;
72201;SDS011;60105;54.956;73.412;2022-08-04T05:14:33;4.80;;;2.53;;
72201;SDS011;60105;54.956;73.412;2022-08-04T05:17:14;6.72;;;1.98;;
72201;SDS011;60105;54.956;73.412;2022-08-04T05:22:48;6.88;;;2.40;;
72201;SDS011;60105;54.956;73.412;2022-08-04T05:28:15;7.07;;;2.30;;
72201;SDS011;60105;54.956;73.412;2022-08-04T05:30:46;7.13;;;2.08;;
72201;SDS011;60105;54.956;73.412;2022-08-04T05:33:21;6.95;;;1.90;;
72201;SDS011;60105;54.956;73.412;2022-08-04T05:35:51;4.53;;;1.83;;
72201;SDS011;60105;54.956;73.412;2022-08-04T05:38:24;4.18;;;1.55;;
72201;SDS011;60105;54.956;73.412;2022-08-04T05:40:54;7.40;;;2.23;;
72201;SDS011;60105;54.956;73.412;2022-08-04T05:43:22;5.93;;;2.40;;
72201;SDS011;60105;54.956;73.412;2022-08-04T05:45:49;7.35;;;2.35;;
72201;SDS011;60105;54.956;73.412;2022-08-04T05:48:16;7.78;;;2.15;;
72201;SDS011;60105;54.956;73.412;2022-08-04T05:50:54;9.07;;;2.17;;
72201;SDS011;60105;54.956;73.412;2022-08-04T05:53:25;8.50;;;2.20;;
72201;SDS011;60105;54.956;73.412;2022-08-04T05:56:03;6.18;;;2.13;;
72201;SDS011;60105;54.956;73.412;2022-08-04T05:58:31;4.18;;;1.88;;
72201;SDS011;60105;54.956;73.412;2022-08-04T06:00:59;4.63;;;2.30;;
72201;SDS011;60105;54.956;73.412;2022-08-04T06:03:31;5.18;;;1.92;;
72201;SDS011;60105;54.956;73.412;2022-08-04T06:06:00;4.43;;;2.10;;
72201;SDS011;60105;54.956;73.412;2022-08-04T06:08:34;4.40;;;2.22;;
72201;SDS011;60105;54.956;73.412;2022-08-04T06:11:06;6.47;;;2.42;;
72201;SDS011;60105;54.956;73.412;2022-08-04T06:13:42;6.05;;;1.65;;
72201;SDS011;60105;54.956;73.412;2022-08-04T06:16:12;6.53;;;1.83;;
72201;SDS011;60105;54.956;73.412;2022-08-04T06:18:41;4.47;;;2.17;;
72201;SDS011;60105;54.956;73.412;2022-08-04T06:21:20;6.30;;;2.08;;
72201;SDS011;60105;54.956;73.412;2022-08-04T06:23:57;7.30;;;2.17;;
72201;SDS011;60105;54.956;73.412;2022-08-04T06:26:25;6.35;;;2.20;;
72201;SDS011;60105;54.956;73.412;2022-08-04T06:28:54;4.50;;;2.30;;
72201;SDS011;60105;54.956;73.412;2022-08-04T06:31:32;5.27;;;2.30;;
72201;SDS011;60105;54.956;73.412;2022-08-04T06:34:11;4.38;;;2.10;;
72201;SDS011;60105;54.956;73.412;2022-08-04T06:36:43;4.40;;;1.90;;
72201;SDS011;60105;54.956;73.412;2022-08-04T06:39:11;4.97;;;1.95;;
72201;SDS011;60105;54.956;73.412;2022-08-04T06:41:39;5.43;;;2.13;;
72201;SDS011;60105;54.956;73.412;2022-08-04T06:44:17;7.10;;;2.67;;
72201;SDS011;60105;54.956;73.412;2022-08-04T06:46:54;5.43;;;2.10;;
72201;SDS011;60105;54.956;73.412;2022-08-04T06:49:23;5.80;;;2.35;;
72201;SDS011;60105;54.956;73.412;2022-08-04T06:51:56;7.65;;;2.42;;
72201;SDS011;60105;54.956;73.412;2022-08-04T06:54:23;6.38;;;2.15;;
72201;SDS011;60105;54.956;73.412;2022-08-04T06:56:49;5.53;;;1.83;;
72201;SDS011;60105;54.956;73.412;2022-08-04T06:59:16;6.30;;;2.10;;
72201;SDS011;60105;54.956;73.412;2022-08-04T07:01:44;3.92;;;1.77;;
72201;SDS011;60105;54.956;73.412;2022-08-04T07:04:11;5.28;;;1.85;;
72201;SDS011;60105;54.956;73.412;2022-08-04T07:06:38;6.05;;;1.90;;
72201;SDS011;60105;54.956;73.412;2022-08-04T07:09:04;5.30;;;2.10;;
72201;SDS011;60105;54.956;73.412;2022-08-04T07:11:31;5.35;;;1.88;;
72201;SDS011;60105;54.956;73.412;2022-08-04T07:13:58;5.13;;;1.85;;
72201;SDS011;60105;54.956;73.412;2022-08-04T07:16:30;8.05;;;2.05;;
72201;SDS011;60105;54.956;73.412;2022-08-04T07:18:58;5.80;;;2.08;;
72201;SDS011;60105;54.956;73.412;2022-08-04T07:21:30;5.10;;;1.97;;
72201;SDS011;60105;54.956;73.412;2022-08-04T07:23:56;4.45;;;1.90;;
72201;SDS011;60105;54.956;73.412;2022-08-04T07:26:26;6.95;;;2.00;;
72201;SDS011;60105;54.956;73.412;2022-08-04T07:28:53;5.80;;;1.98;;
72201;SDS011;60105;54.956;73.412;2022-08-04T07:31:21;4.38;;;2.05;;
72201;SDS011;60105;54.956;73.412;2022-08-04T07:33:54;5.83;;;2.37;;
72201;SDS011;60105;54.956;73.412;2022-08-04T07:36:20;4.50;;;2.03;;
72201;SDS011;60105;54.956;73.412;2022-08-04T07:38:46;4.25;;;1.92;;
72201;SDS011;60105;54.956;73.412;2022-08-04T07:41:13;6.95;;;2.25;;
72201;SDS011;60105;54.956;73.412;2022-08-04T07:43:46;6.70;;;1.90;;
72201;SDS011;60105;54.956;73.412;2022-08-04T07:46:13;4.03;;;2.00;;
72201;SDS011;60105;54.956;73.412;2022-08-04T07:48:39;9.07;;;2.33;;
72201;SDS011;60105;54.956;73.412;2022-08-04T07:51:06;5.22;;;1.98;;
72201;SDS011;60105;54.956;73.412;2022-08-04T07:53:33;4.35;;;1.80;;
72201;SDS011;60105;54.956;73.412;2022-08-04T07:56:09;5.70;;;1.60;;
72201;SDS011;60105;54.956;73.412;2022-08-04T07:58:38;5.37;;;1.37;;
72201;SDS011;60105;54.956;73.412;2022-08-04T08:01:04;5.18;;;1.95;;
72201;SDS011;60105;54.956;73.412;2022-08-04T08:03:30;6.35;;;1.80;;
72201;SDS011;60105;54.956;73.412;2022-08-04T08:05:56;5.13;;;1.95;;
72201;SDS011;60105;54.956;73.412;2022-08-04T08:08:22;8.40;;;2.22;;
72201;SDS011;60105;54.956;73.412;2022-08-04T08:10:49;4.20;;;2.10;;
72201;SDS011;60105;54.956;73.412;2022-08-04T08:13:16;7.93;;;2.22;;
72201;SDS011;60105;54.956;73.412;2022-08-04T08:15:43;7.03;;;2.67;;
72201;SDS011;60105;54.956;73.412;2022-08-04T08:18:10;5.82;;;2.38;;
72201;SDS011;60105;54.956;73.412;2022-08-04T08:20:37;6.43;;;2.40;;
72201;SDS011;60105;54.956;73.412;2022-08-04T08:23:03;4.30;;;1.47;;
72201;SDS011;60105;54.956;73.412;2022-08-04T08:25:32;6.93;;;1.70;;
72201;SDS011;60105;54.956;73.412;2022-08-04T08:27:59;5.90;;;2.25;;
72201;SDS011;60105;54.956;73.412;2022-08-04T08:30:28;4.90;;;1.95;;
72201;SDS011;60105;54.956;73.412;2022-08-04T08:32:54;5.95;;;2.00;;
72201;SDS011;60105;54.956;73.412;2022-08-04T08:35:20;8.03;;;2.57;;
72201;SDS011;60105;54.956;73.412;2022-08-04T08:37:51;3.70;;;2.00;;
72201;SDS011;60105;54.956;73.412;2022-08-04T08:54:26;5.22;;;2.33;;
72201;SDS011;60105;54.956;73.412;2022-08-04T09:00:06;4.43;;;1.83;;
72201;SDS011;60105;54.956;73.412;2022-08-04T09:11:08;5.40;;;2.03;;
72201;SDS011;60105;54.956;73.412;2022-08-04T09:13:40;8.82;;;2.38;;
72201;SDS011;60105;54.956;73.412;2022-08-04T09:16:23;4.97;;;1.80;;
72201;SDS011;60105;54.956;73.412;2022-08-04T09:22:12;4.47;;;1.80;;
72201;SDS011;60105;54.956;73.412;2022-08-04T09:24:53;5.13;;;1.95;;
72201;SDS011;60105;54.956;73.412;2022-08-04T09:30:04;6.50;;;1.80;;
72201;SDS011;60105;54.956;73.412;2022-08-04T09:32:47;6.65;;;1.85;;
72201;SDS011;60105;54.956;73.412;2022-08-04T09:35:53;4.70;;;2.00;;
72201;SDS011;60105;54.956;73.412;2022-08-04T09:38:32;4.60;;;2.00;;
72201;SDS011;60105;54.956;73.412;2022-08-04T09:49:49;5.28;;;1.80;;
72201;SDS011;60105;54.956;73.412;2022-08-04T09:52:25;5.68;;;1.98;;
72201;SDS011;60105;54.956;73.412;2022-08-04T10:01:21;7.25;;;1.83;;
72201;SDS011;60105;54.956;73.412;2022-08-04T10:03:50;5.55;;;2.15;;
72201;SDS011;60105;54.956;73.412;2022-08-04T10:09:10;5.40;;;1.90;;
72201;SDS011;60105;54.956;73.412;2022-08-04T10:11:51;4.63;;;2.07;;
72201;SDS011;60105;54.956;73.412;2022-08-04T10:26:26;6.00;;;2.20;;
72201;SDS011;60105;54.956;73.412;2022-08-04T10:34:58;3.50;;;1.60;;
72201;SDS011;60105;54.956;73.412;2022-08-04T10:40:26;5.80;;;2.10;;
72201;SDS011;60105;54.956;73.412;2022-08-04T10:45:39;3.50;;;1.50;;
72201;SDS011;60105;54.956;73.412;2022-08-04T10:48:12;5.80;;;1.90;;
72201;SDS011;60105;54.956;73.412;2022-08-04T10:53:59;5.77;;;1.60;;
72201;SDS011;60105;54.956;73.412;2022-08-04T10:56:42;5.53;;;1.80;;
72201;SDS011;60105;54.956;73.412;2022-08-04T10:59:15;5.28;;;2.00;;
72201;SDS011;60105;54.956;73.412;2022-08-04T11:01:47;6.28;;;1.88;;
72201;SDS011;60105;54.956;73.412;2022-08-04T11:04:30;5.85;;;2.10;;
72201;SDS011;60105;54.956;73.412;2022-08-04T11:07:10;5.23;;;2.00;;
72201;SDS011;60105;54.956;73.412;2022-08-04T11:09:42;7.22;;;1.63;;
72201;SDS011;60105;54.956;73.412;2022-08-04T11:12:22;4.47;;;1.80;;
72201;SDS011;60105;54.956;73.412;2022-08-04T11:14:52;7.10;;;1.88;;
72201;SDS011;60105;54.956;73.412;2022-08-04T11:17:35;4.85;;;2.00;;
72201;SDS011;60105;54.956;73.412;2022-08-04T11:20:28;3.80;;;1.63;;
72201;SDS011;60105;54.956;73.412;2022-08-04T11:25:48;5.15;;;1.70;;
72201;SDS011;60105;54.956;73.412;2022-08-04T11:28:34;4.80;;;1.80;;
72201;SDS011;60105;54.956;73.412;2022-08-04T11:31:11;4.90;;;1.70;;
72201;SDS011;60105;54.956;73.412;2022-08-04T11:36:14;5.50;;;1.83;;
72201;SDS011;60105;54.956;73.412;2022-08-04T11:44:55;4.05;;;1.77;;
72201;SDS011;60105;54.956;73.412;2022-08-04T11:47:28;5.20;;;2.07;;
72201;SDS011;60105;54.956;73.412;2022-08-04T11:49:57;15.32;;;2.22;;
72201;SDS011;60105;54.956;73.412;2022-08-04T11:52:29;5.35;;;1.70;;
72201;SDS011;60105;54.956;73.412;2022-08-04T11:54:57;5.20;;;2.10;;
72201;SDS011;60105;54.956;73.412;2022-08-04T11:57:28;5.43;;;2.15;;
72201;SDS011;60105;54.956;73.412;2022-08-04T11:59:54;4.47;;;1.97;;
72201;SDS011;60105;54.956;73.412;2022-08-04T12:05:02;3.75;;;1.65;;
72201;SDS011;60105;54.956;73.412;2022-08-04T12:07:51;7.82;;;1.80;;
72201;SDS011;60105;54.956;73.412;2022-08-04T12:24:04;5.03;;;1.90;;
72201;SDS011;60105;54.956;73.412;2022-08-04T12:26:55;5.50;;;2.17;;
72201;SDS011;60105;54.956;73.412;2022-08-04T12:29:23;7.55;;;2.35;;
72201;SDS011;60105;54.956;73.412;2022-08-04T12:34:57;4.68;;;1.98;;
72201;SDS011;60105;54.956;73.412;2022-08-04T12:43:36;4.95;;;2.08;;
72201;SDS011;60105;54.956;73.412;2022-08-04T12:46:08;5.18;;;2.00;;
72201;SDS011;60105;54.956;73.412;2022-08-04T12:48:43;6.00;;;2.10;;
72201;SDS011;60105;54.956;73.412;2022-08-04T12:51:11;5.00;;;2.30;;
72201;SDS011;60105;54.956;73.412;2022-08-04T12:53:39;6.00;;;2.03;;
72201;SDS011;60105;54.956;73.412;2022-08-04T12:56:07;4.90;;;2.20;;
72201;SDS011;60105;54.956;73.412;2022-08-04T12:58:37;5.57;;;1.88;;
72201;SDS011;60105;54.956;73.412;2022-08-04T13:01:26;7.97;;;3.20;;
72201;SDS011;60105;54.956;73.412;2022-08-04T13:04:10;6.35;;;2.38;;
72201;SDS011;60105;54.956;73.412;2022-08-04T13:06:37;5.33;;;2.53;;
72201;SDS011;60105;54.956;73.412;2022-08-04T13:09:15;8.27;;;2.38;;
72201;SDS011;60105;54.956;73.412;2022-08-04T13:11:48;8.65;;;2.50;;
72201;SDS011;60105;54.956;73.412;2022-08-04T13:14:23;7.18;;;2.42;;
72201;SDS011;60105;54.956;73.412;2022-08-04T13:16:59;5.97;;;2.42;;
72201;SDS011;60105;54.956;73.412;2022-08-04T13:19:27;5.90;;;1.97;;
72201;SDS011;60105;54.956;73.412;2022-08-04T13:21:55;5.38;;;1.90;;
72201;SDS011;60105;54.956;73.412;2022-08-04T13:24:22;7.75;;;2.53;;
72201;SDS011;60105;54.956;73.412;2022-08-04T13:26:52;4.30;;;1.77;;
72201;SDS011;60105;54.956;73.412;2022-08-04T13:29:19;5.80;;;2.22;;
72201;SDS011;60105;54.956;73.412;2022-08-04T13:31:46;7.60;;;1.70;;
72201;SDS011;60105;54.956;73.412;2022-08-04T13:34:14;4.53;;;1.65;;
72201;SDS011;60105;54.956;73.412;2022-08-04T13:36:41;5.40;;;1.80;;
72201;SDS011;60105;54.956;73.412;2022-08-04T13:39:14;5.80;;;2.00;;
72201;SDS011;60105;54.956;73.412;2022-08-04T13:41:46;4.60;;;1.70;;
72201;SDS011;60105;54.956;73.412;2022-08-04T13:44:19;7.63;;;2.23;;
72201;SDS011;60105;54.956;73.412;2022-08-04T13:52:38;7.15;;;2.05;;
72201;SDS011;60105;54.956;73.412;2022-08-04T13:55:05;7.15;;;2.58;;
72201;SDS011;60105;54.956;73.412;2022-08-04T13:57:42;12.53;;;2.30;;
72201;SDS011;60105;54.956;73.412;2022-08-04T14:00:09;7.03;;;2.67;;
72201;SDS011;60105;54.956;73.412;2022-08-04T14:02:44;6.28;;;2.45;;
72201;SDS011;60105;54.956;73.412;2022-08-04T14:05:23;7.78;;;3.53;;
72201;SDS011;60105;54.956;73.412;2022-08-04T14:07:56;8.32;;;2.53;;
72201;SDS011;60105;54.956;73.412;2022-08-04T14:10:39;6.80;;;2.50;;
72201;SDS011;60105;54.956;73.412;2022-08-04T14:13:11;5.10;;;2.60;;
72201;SDS011;60105;54.956;73.412;2022-08-04T14:15:39;12.82;;;3.03;;
72201;SDS011;60105;54.956;73.412;2022-08-04T14:21:07;10.50;;;3.25;;
72201;SDS011;60105;54.956;73.412;2022-08-04T14:26:33;9.63;;;2.90;;
72201;SDS011;60105;54.956;73.412;2022-08-04T14:29:10;10.02;;;3.30;;
72201;SDS011;60105;54.956;73.412;2022-08-04T14:31:38;9.00;;;3.15;;
72201;SDS011;60105;54.956;73.412;2022-08-04T14:34:05;10.65;;;3.35;;
72201;SDS011;60105;54.956;73.412;2022-08-04T14:36:38;11.60;;;3.67;;
72201;SDS011;60105;54.956;73.412;2022-08-04T14:39:11;11.85;;;3.17;;
72201;SDS011;60105;54.956;73.412;2022-08-04T14:41:45;9.25;;;2.90;;
72201;SDS011;60105;54.956;73.412;2022-08-04T14:44:15;10.48;;;3.75;;
72201;SDS011;60105;54.956;73.412;2022-08-04T14:46:51;6.00;;;2.78;;
72201;SDS011;60105;54.956;73.412;2022-08-04T14:49:19;9.87;;;3.37;;
72201;SDS011;60105;54.956;73.412;2022-08-04T14:51:56;7.20;;;3.17;;
72201;SDS011;60105;54.956;73.412;2022-08-04T14:54:30;7.22;;;2.53;;
72201;SDS011;60105;54.956;73.412;2022-08-04T14:57:00;8.80;;;3.42;;
72201;SDS011;60105;54.956;73.412;2022-08-04T14:59:42;9.15;;;3.28;;
72201;SDS011;60105;54.956;73.412;2022-08-04T15:02:12;12.93;;;2.80;;
72201;SDS011;60105;54.956;73.412;2022-08-04T15:04:45;10.55;;;3.30;;
72201;SDS011;60105;54.956;73.412;2022-08-04T15:07:12;9.23;;;3.90;;
72201;SDS011;60105;54.956;73.412;2022-08-04T15:09:39;15.90;;;4.10;;
72201;SDS011;60105;54.956;73.412;2022-08-04T15:12:06;9.88;;;4.38;;
72201;SDS011;60105;54.956;73.412;2022-08-04T15:14:35;12.00;;;4.30;;
72201;SDS011;60105;54.956;73.412;2022-08-04T15:17:06;12.85;;;4.30;;
72201;SDS011;60105;54.956;73.412;2022-08-04T15:19:33;10.90;;;5.03;;
72201;SDS011;60105;54.956;73.412;2022-08-04T15:21:59;20.08;;;5.13;;
72201;SDS011;60105;54.956;73.412;2022-08-04T15:24:32;13.30;;;4.53;;
72201;SDS011;60105;54.956;73.412;2022-08-04T15:27:08;12.43;;;3.90;;
72201;SDS011;60105;54.956;73.412;2022-08-04T15:29:37;10.85;;;4.05;;
72201;SDS011;60105;54.956;73.412;2022-08-04T15:32:08;15.10;;;4.80;;
72201;SDS011;60105;54.956;73.412;2022-08-04T15:34:51;8.32;;;3.92;;
72201;SDS011;60105;54.956;73.412;2022-08-04T15:37:26;15.70;;;4.68;;
72201;SDS011;60105;54.956;73.412;2022-08-04T15:39:59;11.67;;;4.87;;
72201;SDS011;60105;54.956;73.412;2022-08-04T15:42:42;10.82;;;4.90;;
72201;SDS011;60105;54.956;73.412;2022-08-04T15:45:20;15.07;;;5.18;;
72201;SDS011;60105;54.956;73.412;2022-08-04T15:50:29;14.05;;;4.65;;
72201;SDS011;60105;54.956;73.412;2022-08-04T15:53:03;16.47;;;5.00;;
72201;SDS011;60105;54.956;73.412;2022-08-04T15:55:30;15.93;;;5.10;;
72201;SDS011;60105;54.956;73.412;2022-08-04T15:58:15;15.32;;;5.15;;
72201;SDS011;60105;54.956;73.412;2022-08-04T16:18:53;12.73;;;4.60;;
72201;SDS011;60105;54.956;73.412;2022-08-04T16:21:25;12.02;;;4.28;;
72201;SDS011;60105;54.956;73.412;2022-08-04T16:34:36;12.88;;;4.90;;
72201;SDS011;60105;54.956;73.412;2022-08-04T16:37:23;11.05;;;4.63;;
72201;SDS011;60105;54.956;73.412;2022-08-04T16:43:09;10.75;;;5.00;;
72201;SDS011;60105;54.956;73.412;2022-08-04T16:45:45;15.70;;;4.70;;
72201;SDS011;60105;54.956;73.412;2022-08-04T16:48:32;11.95;;;4.78;;
72201;SDS011;60105;54.956;73.412;2022-08-04T16:51:06;12.55;;;5.03;;
72201;SDS011;60105;54.956;73.412;2022-08-04T16:53:35;11.32;;;4.35;;
72201;SDS011;60105;54.956;73.412;2022-08-04T16:56:03;13.00;;;4.68;;
72201;SDS011;60105;54.956;73.412;2022-08-04T16:58:33;11.93;;;4.07;;
72201;SDS011;60105;54.956;73.412;2022-08-04T17:01:11;9.77;;;3.92;;
72201;SDS011;60105;54.956;73.412;2022-08-04T17:03:40;13.18;;;3.80;;
72201;SDS011;60105;54.956;73.412;2022-08-04T17:06:15;8.73;;;4.30;;
72201;SDS011;60105;54.956;73.412;2022-08-04T17:08:52;13.38;;;4.53;;
72201;SDS011;60105;54.956;73.412;2022-08-04T17:11:18;11.93;;;4.50;;
72201;SDS011;60105;54.956;73.412;2022-08-04T17:13:57;9.27;;;3.88;;
72201;SDS011;60105;54.956;73.412;2022-08-04T17:16:29;16.48;;;4.47;;
72201;SDS011;60105;54.956;73.412;2022-08-04T17:18:58;10.73;;;3.88;;
72201;SDS011;60105;54.956;73.412;2022-08-04T17:21:29;9.00;;;3.80;;
72201;SDS011;60105;54.956;73.412;2022-08-04T17:23:57;8.00;;;3.67;;
72201;SDS011;60105;54.956;73.412;2022-08-04T17:26:25;13.20;;;3.85;;
72201;SDS011;60105;54.956;73.412;2022-08-04T17:28:54;7.63;;;3.63;;
72201;SDS011;60105;54.956;73.412;2022-08-04T17:31:27;10.77;;;3.75;;
72201;SDS011;60105;54.956;73.412;2022-08-04T17:33:54;8.18;;;3.42;;
72201;SDS011;60105;54.956;73.412;2022-08-04T17:36:25;8.70;;;3.77;;
72201;SDS011;60105;54.956;73.412;2022-08-04T17:38:55;9.75;;;3.70;;
72201;SDS011;60105;54.956;73.412;2022-08-04T17:41:25;11.20;;;4.20;;
72201;SDS011;60105;54.956;73.412;2022-08-04T17:43:53;9.57;;;3.50;;
72201;SDS011;60105;54.956;73.412;2022-08-04T17:46:21;7.60;;;3.42;;
72201;SDS011;60105;54.956;73.412;2022-08-04T17:51:54;8.70;;;3.67;;
72201;SDS011;60105;54.956;73.412;2022-08-04T17:56:52;7.88;;;3.40;;
72201;SDS011;60105;54.956;73.412;2022-08-04T17:59:22;8.30;;;3.75;;
72201;SDS011;60105;54.956;73.412;2022-08-04T18:04:24;7.82;;;3.72;;
72201;SDS011;60105;54.956;73.412;2022-08-04T18:07:09;9.32;;;3.58;;
72201;SDS011;60105;54.956;73.412;2022-08-04T18:15:01;8.07;;;3.67;;
72201;SDS011;60105;54.956;73.412;2022-08-04T18:17:37;9.98;;;3.85;;
72201;SDS011;60105;54.956;73.412;2022-08-04T18:20:14;8.73;;;3.58;;
72201;SDS011;60105;54.956;73.412;2022-08-04T18:22:45;7.22;;;3.35;;
72201;SDS011;60105;54.956;73.412;2022-08-04T18:25:21;8.38;;;3.45;;
72201;SDS011;60105;54.956;73.412;2022-08-04T18:27:49;8.83;;;3.40;;
72201;SDS011;60105;54.956;73.412;2022-08-04T18:30:21;9.20;;;4.03;;
72201;SDS011;60105;54.956;73.412;2022-08-04T18:32:49;7.80;;;3.60;;
72201;SDS011;60105;54.956;73.412;2022-08-04T18:35:18;8.23;;;4.15;;
72201;SDS011;60105;54.956;73.412;2022-08-04T18:37:45;7.35;;;3.90;;
72201;SDS011;60105;54.956;73.412;2022-08-04T18:40:11;8.60;;;3.67;;
72201;SDS011;60105;54.956;73.412;2022-08-04T18:42:38;9.73;;;4.13;;
72201;SDS011;60105;54.956;73.412;2022-08-04T18:45:05;5.88;;;3.50;;
72201;SDS011;60105;54.956;73.412;2022-08-04T18:47:31;13.18;;;3.53;;
72201;SDS011;60105;54.956;73.412;2022-08-04T18:49:57;7.57;;;3.33;;
72201;SDS011;60105;54.956;73.412;2022-08-04T18:52:24;8.40;;;3.23;;
72201;SDS011;60105;54.956;73.412;2022-08-04T18:54:50;6.88;;;3.20;;
72201;SDS011;60105;54.956;73.412;2022-08-04T18:57:18;7.25;;;3.60;;
72201;SDS011;60105;54.956;73.412;2022-08-04T18:59:45;8.27;;;3.75;;
72201;SDS011;60105;54.956;73.412;2022-08-04T19:02:12;8.45;;;3.95;;
72201;SDS011;60105;54.956;73.412;2022-08-04T19:04:48;8.23;;;4.20;;
72201;SDS011;60105;54.956;73.412;2022-08-04T19:07:15;7.97;;;3.70;;
72201;SDS011;60105;54.956;73.412;2022-08-04T19:09:41;8.43;;;3.40;;
72201;SDS011;60105;54.956;73.412;2022-08-04T19:12:08;10.27;;;4.20;;
72201;SDS011;60105;54.956;73.412;2022-08-04T19:14:34;8.27;;;4.03;;
72201;SDS011;60105;54.956;73.412;2022-08-04T19:17:01;7.50;;;3.70;;
72201;SDS011;60105;54.956;73.412;2022-08-04T19:19:37;6.00;;;3.78;;
72201;SDS011;60105;54.956;73.412;2022-08-04T19:22:13;8.35;;;3.30;;
72201;SDS011;60105;54.956;73.412;2022-08-04T19:24:40;6.63;;;3.40;;
72201;SDS011;60105;54.956;73.412;2022-08-04T19:27:06;8.32;;;3.80;;
72201;SDS011;60105;54.956;73.412;2022-08-04T19:29:32;7.17;;;3.80;;
72201;SDS011;60105;54.956;73.412;2022-08-04T19:32:09;10.02;;;3.88;;
72201;SDS011;60105;54.956;73.412;2022-08-04T19:34:37;6.72;;;3.72;;
72201;SDS011;60105;54.956;73.412;2022-08-04T19:37:03;8.25;;;3.55;;
72201;SDS011;60105;54.956;73.412;2022-08-04T19:39:30;9.23;;;3.35;;
72201;SDS011;60105;54.956;73.412;2022-08-04T19:41:56;7.47;;;3.40;;
72201;SDS011;60105;54.956;73.412;2022-08-04T19:44:22;7.18;;;3.50;;
72201;SDS011;60105;54.956;73.412;2022-08-04T19:46:48;7.82;;;3.20;;
72201;SDS011;60105;54.956;73.412;2022-08-04T19:49:14;9.05;;;3.35;;
72201;SDS011;60105;54.956;73.412;2022-08-04T19:51:41;7.47;;;3.33;;
72201;SDS011;60105;54.956;73.412;2022-08-04T19:54:08;13.10;;;3.57;;
72201;SDS011;60105;54.956;73.412;2022-08-04T19:56:34;6.72;;;3.58;;
72201;SDS011;60105;54.956;73.412;2022-08-04T19:59:00;7.10;;;3.55;;
72201;SDS011;60105;54.956;73.412;2022-08-04T20:01:29;7.72;;;3.45;;
72201;SDS011;60105;54.956;73.412;2022-08-04T20:03:55;8.45;;;3.10;;
72201;SDS011;60105;54.956;73.412;2022-08-04T20:06:21;9.07;;;3.77;;
72201;SDS011;60105;54.956;73.412;2022-08-04T20:08:49;7.68;;;3.83;;
72201;SDS011;60105;54.956;73.412;2022-08-04T20:11:19;6.13;;;3.40;;
72201;SDS011;60105;54.956;73.412;2022-08-04T20:13:46;9.68;;;4.05;;
72201;SDS011;60105;54.956;73.412;2022-08-04T20:16:12;8.20;;;3.55;;